sensor_id;sensor_type;location;lat;lon;timestamp;pressure;altitude;pressure_sealevel;temperature;humidity
76609;BME280;65928;53.936;27.540;2023-02-01T00:01:41;97931.19;;;2.60;68.45
76609;BME280;65928;53.936;27.540;2023-02-01T00:04:07;97473.72;;;0.06;69.24
76609;BME280;65928;53.936;27.540;2023-02-01T00:06:32;97869.94;;;2.48;69.20
76609;BME280;65928;53.936;27.540;2023-02-01T00:08:57;97866.22;;;2.54;68.66
76609;BME280;65928;53.936;27.540;2023-02-01T00:11:23;97867.25;;;2.50;68.62
76609;BME280;65928;53.936;27.540;2023-02-01T00:13:49;97528.00;;;0.63;68.08
76609;BME280;65928;53.936;27.540;2023-02-01T00:16:17;97767.66;;;2.19;67.69
76609;BME280;65928;53.936;27.540;2023-02-01T00:18:45;97472.56;;;0.15;68.75
76609;BME280;65928;53.936;27.540;2023-02-01T00:21:12;97789.28;;;1.74;68.55
76609;BME280;65928;53.936;27.540;2023-02-01T00:23:37;97388.59;;;-0.09;68.29
76609;BME280;65928;53.936;27.540;2023-02-01T00:26:06;97825.47;;;2.51;68.02
76609;BME280;65928;53.936;27.540;2023-02-01T00:28:32;97468.53;;;0.31;68.27
76609;BME280;65928;53.936;27.540;2023-02-01T00:31:02;97836.31;;;2.64;68.32
76609;BME280;65928;53.936;27.540;2023-02-01T00:33:29;97346.69;;;-0.72;69.01
76609;BME280;65928;53.936;27.540;2023-02-01T00:35:58;97791.91;;;1.98;69.62
76609;BME280;65928;53.936;27.540;2023-02-01T00:38:25;97343.91;;;-0.42;68.57
76609;BME280;65928;53.936;27.540;2023-02-01T00:40:51;97713.44;;;1.83;68.79
76609;BME280;65928;53.936;27.540;2023-02-01T00:43:16;97355.34;;;-0.73;70.02
76609;BME280;65928;53.936;27.540;2023-02-01T00:45:42;97692.63;;;1.60;69.04
76609;BME280;65928;53.936;27.540;2023-02-01T00:48:07;97873.84;;;2.37;68.92
76609;BME280;65928;53.936;27.540;2023-02-01T00:50:33;97693.50;;;1.59;69.25
76609;BME280;65928;53.936;27.540;2023-02-01T00:52:58;97786.91;;;2.38;68.50
76609;BME280;65928;53.936;27.540;2023-02-01T00:55:24;97342.19;;;-0.43;68.90
76609;BME280;65928;53.936;27.540;2023-02-01T00:57:50;97331.59;;;-0.37;68.72
76609;BME280;65928;53.936;27.540;2023-02-01T01:00:16;97319.50;;;-0.36;68.17
76609;BME280;65928;53.936;27.540;2023-02-01T01:02:41;97795.34;;;2.44;68.79
76609;BME280;65928;53.936;27.540;2023-02-01T01:05:07;97804.66;;;2.28;69.04
76609;BME280;65928;53.936;27.540;2023-02-01T01:07:33;97332.28;;;-0.56;69.07
76609;BME280;65928;53.936;27.540;2023-02-01T01:09:58;97790.00;;;2.47;68.57
76609;BME280;65928;53.936;27.540;2023-02-01T01:12:24;97304.72;;;-0.34;67.94
76609;BME280;65928;53.936;27.540;2023-02-01T01:14:49;97281.78;;;-0.45;67.74
76609;BME280;65928;53.936;27.540;2023-02-01T01:17:15;97404.78;;;0.22;68.43
76609;BME280;65928;53.936;27.540;2023-02-01T01:19:40;97777.44;;;2.14;68.92
76609;BME280;65928;53.936;27.540;2023-02-01T01:22:06;97774.75;;;2.15;68.52
76609;BME280;65928;53.936;27.540;2023-02-01T01:24:31;97760.28;;;1.11;69.54
76609;BME280;65928;53.936;27.540;2023-02-01T01:26:56;97730.78;;;1.85;69.40
76609;BME280;65928;53.936;27.540;2023-02-01T01:29:22;97759.44;;;2.06;68.63
76609;BME280;65928;53.936;27.540;2023-02-01T01:31:47;97727.13;;;1.65;69.51
76609;BME280;65928;53.936;27.540;2023-02-01T01:34:13;97757.69;;;1.83;69.44
76609;BME280;65928;53.936;27.540;2023-02-01T01:36:38;97743.44;;;1.70;70.17
76609;BME280;65928;53.936;27.540;2023-02-01T01:39:04;97252.44;;;-1.21;69.75
76609;BME280;65928;53.936;27.540;2023-02-01T01:41:31;97658.91;;;1.10;70.21
76609;BME280;65928;53.936;27.540;2023-02-01T01:44:02;97325.69;;;-0.91;69.47
76609;BME280;65928;53.936;27.540;2023-02-01T01:46:31;97422.22;;;-0.31;69.62
76609;BME280;65928;53.936;27.540;2023-02-01T01:49:14;97820.00;;;1.40;70.64
76609;BME280;65928;53.936;27.540;2023-02-01T01:51:54;97700.34;;;1.39;69.63
76609;BME280;65928;53.936;27.540;2023-02-01T01:54:43;97737.28;;;1.48;70.25
76609;BME280;65928;53.936;27.540;2023-02-01T01:57:46;97717.69;;;1.38;70.88
76609;BME280;65928;53.936;27.540;2023-02-01T02:00:17;97719.53;;;1.59;70.46
76609;BME280;65928;53.936;27.540;2023-02-01T02:02:45;97723.00;;;1.60;70.40
76609;BME280;65928;53.936;27.540;2023-02-01T02:05:12;97612.38;;;1.25;70.04
76609;BME280;65928;53.936;27.540;2023-02-01T02:07:45;97802.47;;;1.45;71.27
76609;BME280;65928;53.936;27.540;2023-02-01T02:10:12;97660.78;;;1.29;70.37
76609;BME280;65928;53.936;27.540;2023-02-01T02:12:40;97205.00;;;-1.49;70.58
76609;BME280;65928;53.936;27.540;2023-02-01T02:15:08;97242.28;;;-1.28;70.88
76609;BME280;65928;53.936;27.540;2023-02-01T02:17:46;97765.84;;;1.51;71.31
76609;BME280;65928;53.936;27.540;2023-02-01T02:20:33;97212.72;;;-1.47;71.10
76609;BME280;65928;53.936;27.540;2023-02-01T02:36:50;97638.00;;;0.88;71.67
76609;BME280;65928;53.936;27.540;2023-02-01T02:42:12;97180.00;;;-1.76;70.85
76609;BME280;65928;53.936;27.540;2023-02-01T02:48:09;97674.41;;;1.13;71.26
76609;BME280;65928;53.936;27.540;2023-02-01T02:50:57;97258.47;;;-1.74;71.71
76609;BME280;65928;53.936;27.540;2023-02-01T02:53:51;97532.44;;;0.10;71.88
76609;BME280;65928;53.936;27.540;2023-02-01T02:56:38;97664.59;;;0.96;71.65
76609;BME280;65928;53.936;27.540;2023-02-01T02:59:24;97480.44;;;-0.13;71.28
76609;BME280;65928;53.936;27.540;2023-02-01T03:02:10;97156.94;;;-2.37;72.55
76609;BME280;65928;53.936;27.540;2023-02-01T03:04:56;97255.31;;;-1.84;72.59
76609;BME280;65928;53.936;27.540;2023-02-01T03:10:17;97155.06;;;-2.05;71.38
76609;BME280;65928;53.936;27.540;2023-02-01T03:12:45;97389.25;;;-0.79;72.84
76609;BME280;65928;53.936;27.540;2023-02-01T03:15:49;97655.59;;;0.80;72.57
76609;BME280;65928;53.936;27.540;2023-02-01T03:18:22;97664.22;;;0.82;72.03
76609;BME280;65928;53.936;27.540;2023-02-01T03:20:51;97612.06;;;0.62;71.94
76609;BME280;65928;53.936;27.540;2023-02-01T03:23:20;97115.50;;;-2.36;71.67
76609;BME280;65928;53.936;27.540;2023-02-01T03:25:48;97600.91;;;0.58;72.33
76609;BME280;65928;53.936;27.540;2023-02-01T03:28:17;97248.53;;;-1.60;71.96
76609;BME280;65928;53.936;27.540;2023-02-01T03:30:47;97610.41;;;0.59;72.22
76609;BME280;65928;53.936;27.540;2023-02-01T03:33:17;97315.78;;;-1.31;71.52
76609;BME280;65928;53.936;27.540;2023-02-01T03:41:34;97639.59;;;0.43;72.83
76609;BME280;65928;53.936;27.540;2023-02-01T03:46:50;97557.59;;;0.10;72.72
76609;BME280;65928;53.936;27.540;2023-02-01T03:49:26;97194.28;;;-2.47;72.72
76609;BME280;65928;53.936;27.540;2023-02-01T03:51:53;97447.69;;;-0.42;71.74
76609;BME280;65928;53.936;27.540;2023-02-01T03:54:19;97609.16;;;0.71;71.43
76609;BME280;65928;53.936;27.540;2023-02-01T03:56:47;97541.56;;;0.22;71.84
76609;BME280;65928;53.936;27.540;2023-02-01T03:59:14;97118.09;;;-2.08;71.55
76609;BME280;65928;53.936;27.540;2023-02-01T04:01:40;97351.81;;;-0.71;70.82
76609;BME280;65928;53.936;27.540;2023-02-01T04:04:06;97603.69;;;0.78;70.82
76609;BME280;65928;53.936;27.540;2023-02-01T04:06:31;97096.97;;;-2.22;71.32
76609;BME280;65928;53.936;27.540;2023-02-01T04:08:57;97110.47;;;-2.13;71.26
76609;BME280;65928;53.936;27.540;2023-02-01T04:11:22;97092.50;;;-2.17;71.02
76609;BME280;65928;53.936;27.540;2023-02-01T04:13:48;97584.44;;;1.07;70.33
76609;BME280;65928;53.936;27.540;2023-02-01T04:16:13;97587.44;;;0.97;69.99
76609;BME280;65928;53.936;27.540;2023-02-01T04:18:39;97571.25;;;0.88;70.44
76609;BME280;65928;53.936;27.540;2023-02-01T04:21:04;97064.63;;;-2.09;69.71
76609;BME280;65928;53.936;27.540;2023-02-01T04:23:30;97203.25;;;-0.98;69.07
76609;BME280;65928;53.936;27.540;2023-02-01T04:26:01;97632.22;;;1.05;69.76
76609;BME280;65928;53.936;27.540;2023-02-01T04:28:28;97474.88;;;0.47;69.76
76609;BME280;65928;53.936;27.540;2023-02-01T04:30:53;97066.78;;;-1.96;69.13
76609;BME280;65928;53.936;27.540;2023-02-01T04:33:19;97584.78;;;1.21;68.97
76609;BME280;65928;53.936;27.540;2023-02-01T04:35:44;97168.88;;;-1.27;69.03
76609;BME280;65928;53.936;27.540;2023-02-01T04:38:10;97505.91;;;0.74;69.10
76609;BME280;65928;53.936;27.540;2023-02-01T04:40:36;97173.72;;;-1.43;70.58
76609;BME280;65928;53.936;27.540;2023-02-01T04:43:03;97079.31;;;-2.10;70.87
76609;BME280;65928;53.936;27.540;2023-02-01T04:45:29;97157.72;;;-1.55;70.73
76609;BME280;65928;53.936;27.540;2023-02-01T04:47:55;97226.59;;;-0.98;70.00
76609;BME280;65928;53.936;27.540;2023-02-01T04:50:21;97633.75;;;1.33;69.93
76609;BME280;65928;53.936;27.540;2023-02-01T04:52:46;97117.88;;;-1.51;69.45
76609;BME280;65928;53.936;27.540;2023-02-01T04:55:12;97567.25;;;1.03;70.21
76609;BME280;65928;53.936;27.540;2023-02-01T04:57:39;97106.38;;;-1.43;69.68
76609;BME280;65928;53.936;27.540;2023-02-01T05:00:06;97528.66;;;0.93;70.72
76609;BME280;65928;53.936;27.540;2023-02-01T05:02:32;97551.59;;;0.81;71.10
76609;BME280;65928;53.936;27.540;2023-02-01T05:04:58;97548.59;;;1.15;70.56
76609;BME280;65928;53.936;27.540;2023-02-01T05:07:24;97553.41;;;1.03;71.12
76609;BME280;65928;53.936;27.540;2023-02-01T05:09:49;97050.03;;;-1.86;70.79
76609;BME280;65928;53.936;27.540;2023-02-01T05:12:15;97540.63;;;0.97;70.68
76609;BME280;65928;53.936;27.540;2023-02-01T05:14:59;97546.94;;;1.57;69.26
76609;BME280;65928;53.936;27.540;2023-02-01T05:17:25;97026.03;;;-1.89;70.69
76609;BME280;65928;53.936;27.540;2023-02-01T05:19:50;97542.78;;;1.09;72.23
76609;BME280;65928;53.936;27.540;2023-02-01T05:22:15;97024.50;;;-1.95;71.90
76609;BME280;65928;53.936;27.540;2023-02-01T05:24:41;97534.28;;;1.27;71.93
76609;BME280;65928;53.936;27.540;2023-02-01T05:27:06;97538.28;;;1.35;72.48
76609;BME280;65928;53.936;27.540;2023-02-01T05:29:32;97069.38;;;-1.71;72.25
76609;BME280;65928;53.936;27.540;2023-02-01T05:31:57;97084.25;;;-1.28;72.01
76609;BME280;65928;53.936;27.540;2023-02-01T05:34:23;97397.03;;;0.67;72.50
76609;BME280;65928;53.936;27.540;2023-02-01T05:36:48;97036.00;;;-1.78;73.02
76609;BME280;65928;53.936;27.540;2023-02-01T05:39:14;96980.13;;;-2.09;73.12
76609;BME280;65928;53.936;27.540;2023-02-01T05:41:39;97039.53;;;-1.81;73.65
76609;BME280;65928;53.936;27.540;2023-02-01T05:44:05;97536.50;;;1.14;74.24
76609;BME280;65928;53.936;27.540;2023-02-01T05:46:33;97532.91;;;1.40;73.53
76609;BME280;65928;53.936;27.540;2023-02-01T05:48:59;97446.22;;;0.95;73.29
76609;BME280;65928;53.936;27.540;2023-02-01T05:51:25;96993.13;;;-2.10;73.98
76609;BME280;65928;53.936;27.540;2023-02-01T05:53:50;97492.03;;;0.75;73.71
76609;BME280;65928;53.936;27.540;2023-02-01T05:56:16;97531.09;;;1.19;73.90
76609;BME280;65928;53.936;27.540;2023-02-01T05:58:41;97523.59;;;1.11;74.69
76609;BME280;65928;53.936;27.540;2023-02-01T06:01:07;97343.44;;;0.41;72.47
76609;BME280;65928;53.936;27.540;2023-02-01T06:03:32;97040.31;;;-1.54;73.29
76609;BME280;65928;53.936;27.540;2023-02-01T06:05:58;97523.03;;;1.03;73.98
76609;BME280;65928;53.936;27.540;2023-02-01T06:08:25;96967.16;;;-1.84;73.37
76609;BME280;65928;53.936;27.540;2023-02-01T06:10:51;97520.00;;;1.37;72.59
76609;BME280;65928;53.936;27.540;2023-02-01T06:13:22;97255.06;;;-0.25;72.97
76609;BME280;65928;53.936;27.540;2023-02-01T06:15:47;97493.88;;;1.18;73.54
76609;BME280;65928;53.936;27.540;2023-02-01T06:18:13;97116.06;;;-1.23;74.13
76609;BME280;65928;53.936;27.540;2023-02-01T06:20:41;96999.25;;;-1.65;72.95
76609;BME280;65928;53.936;27.540;2023-02-01T06:23:06;97518.81;;;1.67;72.91
76609;BME280;65928;53.936;27.540;2023-02-01T06:25:31;97506.28;;;1.55;73.00
76609;BME280;65928;53.936;27.540;2023-02-01T06:28:00;97506.09;;;1.59;72.93
76609;BME280;65928;53.936;27.540;2023-02-01T06:30:26;97506.03;;;1.83;72.06
76609;BME280;65928;53.936;27.540;2023-02-01T06:32:51;97498.16;;;1.84;72.21
76609;BME280;65928;53.936;27.540;2023-02-01T06:35:20;97573.53;;;1.65;72.63
76609;BME280;65928;53.936;27.540;2023-02-01T06:37:45;97466.63;;;1.27;73.23
76609;BME280;65928;53.936;27.540;2023-02-01T06:40:11;97489.72;;;1.77;72.04
76609;BME280;65928;53.936;27.540;2023-02-01T06:42:37;97049.56;;;-1.00;71.61
76609;BME280;65928;53.936;27.540;2023-02-01T06:45:03;97457.88;;;1.29;72.99
76609;BME280;65928;53.936;27.540;2023-02-01T06:47:28;97449.28;;;1.49;72.27
76609;BME280;65928;53.936;27.540;2023-02-01T06:49:54;97032.75;;;-1.13;72.09
76609;BME280;65928;53.936;27.540;2023-02-01T06:52:19;97011.69;;;-1.04;72.04
76609;BME280;65928;53.936;27.540;2023-02-01T06:54:45;97457.94;;;1.28;72.63
76609;BME280;65928;53.936;27.540;2023-02-01T06:57:10;97021.84;;;-0.98;71.49
76609;BME280;65928;53.936;27.540;2023-02-01T06:59:36;97026.63;;;-1.10;71.62
76609;BME280;65928;53.936;27.540;2023-02-01T07:02:01;97024.53;;;-1.24;72.14
76609;BME280;65928;53.936;27.540;2023-02-01T07:04:27;97510.56;;;1.77;72.23
76609;BME280;65928;53.936;27.540;2023-02-01T07:06:52;97464.56;;;1.56;72.27
76609;BME280;65928;53.936;27.540;2023-02-01T07:09:17;97023.50;;;-0.97;71.19
76609;BME280;65928;53.936;27.540;2023-02-01T07:11:43;97437.91;;;1.30;72.89
76609;BME280;65928;53.936;27.540;2023-02-01T07:14:12;97415.50;;;0.82;74.20
76609;BME280;65928;53.936;27.540;2023-02-01T07:16:38;97014.16;;;-1.24;72.99
76609;BME280;65928;53.936;27.540;2023-02-01T07:19:04;97103.47;;;-0.63;73.24
76609;BME280;65928;53.936;27.540;2023-02-01T07:21:29;97499.25;;;1.78;74.08
76609;BME280;65928;53.936;27.540;2023-02-01T07:23:55;97496.13;;;1.91;72.86
76609;BME280;65928;53.936;27.540;2023-02-01T07:26:21;96972.94;;;-1.30;73.29
76609;BME280;65928;53.936;27.540;2023-02-01T07:28:47;96997.44;;;-0.92;72.88
76609;BME280;65928;53.936;27.540;2023-02-01T07:31:15;97428.31;;;1.52;72.96
76609;BME280;65928;53.936;27.540;2023-02-01T07:33:41;97006.00;;;-0.90;73.26
76609;BME280;65928;53.936;27.540;2023-02-01T07:36:11;97372.56;;;1.16;73.53
76609;BME280;65928;53.936;27.540;2023-02-01T07:38:37;96996.75;;;-0.75;72.83
76609;BME280;65928;53.936;27.540;2023-02-01T07:41:04;97535.38;;;2.08;72.79
76609;BME280;65928;53.936;27.540;2023-02-01T07:43:31;97500.78;;;2.24;72.90
76609;BME280;65928;53.936;27.540;2023-02-01T07:45:57;96956.75;;;-0.68;71.89
76609;BME280;65928;53.936;27.540;2023-02-01T07:48:24;97471.28;;;2.24;72.08
76609;BME280;65928;53.936;27.540;2023-02-01T07:51:06;97527.56;;;2.28;71.61
76609;BME280;65928;53.936;27.540;2023-02-01T07:53:32;96980.91;;;-0.46;70.95
76609;BME280;65928;53.936;27.540;2023-02-01T07:55:58;97454.34;;;2.34;70.59
76609;BME280;65928;53.936;27.540;2023-02-01T07:58:24;97028.50;;;-0.47;71.58
76609;BME280;65928;53.936;27.540;2023-02-01T08:00:51;97476.81;;;2.56;70.88
76609;BME280;65928;53.936;27.540;2023-02-01T08:03:36;96995.56;;;-0.67;70.93
76609;BME280;65928;53.936;27.540;2023-02-01T08:06:02;97001.09;;;-0.33;71.26
76609;BME280;65928;53.936;27.540;2023-02-01T08:08:27;97438.44;;;2.58;70.13
76609;BME280;65928;53.936;27.540;2023-02-01T08:11:00;97519.28;;;2.58;70.54
76609;BME280;65928;53.936;27.540;2023-02-01T08:13:26;97490.03;;;2.32;71.20
76609;BME280;65928;53.936;27.540;2023-02-01T08:15:51;96989.13;;;-0.57;71.06
76609;BME280;65928;53.936;27.540;2023-02-01T08:18:17;97421.44;;;2.31;70.48
76609;BME280;65928;53.936;27.540;2023-02-01T08:20:44;96980.50;;;-0.16;69.68
76609;BME280;65928;53.936;27.540;2023-02-01T08:23:11;97082.38;;;0.31;69.36
76609;BME280;65928;53.936;27.540;2023-02-01T08:25:37;97360.06;;;1.86;70.18
76609;BME280;65928;53.936;27.540;2023-02-01T08:28:04;97462.91;;;2.56;70.10
76609;BME280;65928;53.936;27.540;2023-02-01T08:30:29;97455.25;;;2.33;70.85
76609;BME280;65928;53.936;27.540;2023-02-01T08:32:54;97387.88;;;2.24;69.48
76609;BME280;65928;53.936;27.540;2023-02-01T08:35:20;97078.00;;;0.72;68.69
76609;BME280;65928;53.936;27.540;2023-02-01T08:37:45;97161.13;;;1.14;69.19
76609;BME280;65928;53.936;27.540;2023-02-01T08:40:11;97044.06;;;0.56;68.91
76609;BME280;65928;53.936;27.540;2023-02-01T08:42:38;97413.41;;;2.36;68.91
76609;BME280;65928;53.936;27.540;2023-02-01T08:45:27;96905.97;;;-0.74;69.75
76609;BME280;65928;53.936;27.540;2023-02-01T08:47:54;96987.91;;;-0.07;69.46
76609;BME280;65928;53.936;27.540;2023-02-01T08:50:22;97067.72;;;0.50;69.76
76609;BME280;65928;53.936;27.540;2023-02-01T08:52:47;97420.69;;;2.48;69.29
76609;BME280;65928;53.936;27.540;2023-02-01T08:55:14;96983.31;;;0.00;68.95
76609;BME280;65928;53.936;27.540;2023-02-01T08:57:40;97365.09;;;1.90;69.68
76609;BME280;65928;53.936;27.540;2023-02-01T09:00:08;97517.34;;;2.43;70.29
76609;BME280;65928;53.936;27.540;2023-02-01T09:02:35;97449.53;;;2.63;71.08
76609;BME280;65928;53.936;27.540;2023-02-01T09:05:00;97443.16;;;2.89;70.01
76609;BME280;65928;53.936;27.540;2023-02-01T09:07:26;97437.41;;;3.00;69.21
76609;BME280;65928;53.936;27.540;2023-02-01T09:09:51;97006.34;;;0.66;68.35
76609;BME280;65928;53.936;27.540;2023-02-01T09:12:17;97441.59;;;3.04;69.04
76609;BME280;65928;53.936;27.540;2023-02-01T09:14:43;97431.31;;;3.36;68.82
76609;BME280;65928;53.936;27.540;2023-02-01T09:17:08;96966.22;;;0.92;68.02
76609;BME280;65928;53.936;27.540;2023-02-01T09:19:34;96929.47;;;0.81;67.21
76609;BME280;65928;53.936;27.540;2023-02-01T09:21:59;96966.97;;;0.94;67.32
76609;BME280;65928;53.936;27.540;2023-02-01T09:24:25;97431.16;;;3.75;67.49
76609;BME280;65928;53.936;27.540;2023-02-01T09:26:51;97365.44;;;3.14;67.72
76609;BME280;65928;53.936;27.540;2023-02-01T09:29:16;96976.41;;;0.97;67.69
76609;BME280;65928;53.936;27.540;2023-02-01T09:31:42;97342.50;;;3.38;66.71
76609;BME280;65928;53.936;27.540;2023-02-01T09:34:08;97441.06;;;4.03;66.55
76609;BME280;65928;53.936;27.540;2023-02-01T09:36:34;97388.22;;;3.81;66.48
76609;BME280;65928;53.936;27.540;2023-02-01T09:39:00;97420.66;;;3.77;67.72
76609;BME280;65928;53.936;27.540;2023-02-01T09:44:17;97501.81;;;4.42;66.58
76609;BME280;65928;53.936;27.540;2023-02-01T09:46:46;97411.38;;;4.38;66.38
76609;BME280;65928;53.936;27.540;2023-02-01T09:49:16;97384.63;;;4.16;66.03
76609;BME280;65928;53.936;27.540;2023-02-01T09:51:46;97401.09;;;4.18;66.36
76609;BME280;65928;53.936;27.540;2023-02-01T09:54:17;97415.38;;;4.61;65.80
76609;BME280;65928;53.936;27.540;2023-02-01T09:56:49;97474.44;;;4.82;64.67
76609;BME280;65928;53.936;27.540;2023-02-01T09:59:32;97451.91;;;4.46;65.66
76609;BME280;65928;53.936;27.540;2023-02-01T10:02:02;96969.59;;;2.01;65.30
76609;BME280;65928;53.936;27.540;2023-02-01T10:04:28;97402.19;;;4.79;65.54
76609;BME280;65928;53.936;27.540;2023-02-01T10:07:13;96960.28;;;2.30;64.41
76609;BME280;65928;53.936;27.540;2023-02-01T10:10:30;97473.91;;;4.75;64.90
76609;BME280;65928;53.936;27.540;2023-02-01T10:23:22;97408.69;;;4.55;65.34
76609;BME280;65928;53.936;27.540;2023-02-01T10:26:02;97406.00;;;4.24;66.20
76609;BME280;65928;53.936;27.540;2023-02-01T10:28:33;97389.28;;;3.94;66.79
76609;BME280;65928;53.936;27.540;2023-02-01T10:31:01;96956.09;;;1.40;66.87
76609;BME280;65928;53.936;27.540;2023-02-01T10:33:58;97409.78;;;4.18;66.72
76609;BME280;65928;53.936;27.540;2023-02-01T10:37:42;97412.72;;;3.95;67.25
76609;BME280;65928;53.936;27.540;2023-02-01T10:39:46;97407.84;;;4.39;66.38
76609;BME280;65928;53.936;27.540;2023-02-01T10:42:13;96945.50;;;1.79;65.87
76609;BME280;65928;53.936;27.540;2023-02-01T10:44:42;97387.78;;;4.55;66.07
76609;BME280;65928;53.936;27.540;2023-02-01T10:47:10;96908.16;;;1.63;65.63
76609;BME280;65928;53.936;27.540;2023-02-01T10:52:12;97383.50;;;4.21;66.51
76609;BME280;65928;53.936;27.540;2023-02-01T10:54:40;97322.84;;;4.15;66.08
76609;BME280;65928;53.936;27.540;2023-02-01T10:57:10;96935.63;;;2.03;65.61
76609;BME280;65928;53.936;27.540;2023-02-01T10:59:36;97339.34;;;4.32;66.19
76609;BME280;65928;53.936;27.540;2023-02-01T11:02:26;97314.53;;;4.39;64.89
76609;BME280;65928;53.936;27.540;2023-02-01T11:05:00;97354.75;;;4.70;65.26
76609;BME280;65928;53.936;27.540;2023-02-01T11:07:26;97441.06;;;4.70;66.06
76609;BME280;65928;53.936;27.540;2023-02-01T11:09:53;97412.47;;;4.82;65.73
76609;BME280;65928;53.936;27.540;2023-02-01T11:12:36;97374.94;;;4.99;64.94
76609;BME280;65928;53.936;27.540;2023-02-01T11:15:23;97354.41;;;4.91;65.34
76609;BME280;65928;53.936;27.540;2023-02-01T11:17:51;97366.75;;;4.89;65.76
76609;BME280;65928;53.936;27.540;2023-02-01T11:20:19;96932.47;;;2.30;65.05
76609;BME280;65928;53.936;27.540;2023-02-01T11:22:56;96869.25;;;1.77;65.88
76609;BME280;65928;53.936;27.540;2023-02-01T11:25:23;97003.50;;;3.16;64.18
76609;BME280;65928;53.936;27.540;2023-02-01T11:27:50;97356.72;;;5.42;63.88
76609;BME280;65928;53.936;27.540;2023-02-01T11:30:30;97376.47;;;5.48;64.27
76609;BME280;65928;53.936;27.540;2023-02-01T11:32:57;97326.06;;;5.29;63.87
76609;BME280;65928;53.936;27.540;2023-02-01T11:35:23;97317.91;;;5.04;64.33
76609;BME280;65928;53.936;27.540;2023-02-01T11:37:57;97035.56;;;3.18;64.35
76609;BME280;65928;53.936;27.540;2023-02-01T11:40:35;97034.97;;;3.29;64.57
76609;BME280;65928;53.936;27.540;2023-02-01T11:43:13;97285.75;;;5.02;63.95
76609;BME280;65928;53.936;27.540;2023-02-01T11:45:40;96936.31;;;2.89;63.78
76609;BME280;65928;53.936;27.540;2023-02-01T11:48:15;97363.13;;;5.53;63.69
76609;BME280;65928;53.936;27.540;2023-02-01T11:55:56;97034.66;;;3.50;63.91
76609;BME280;65928;53.936;27.540;2023-02-01T12:07:16;97348.69;;;5.45;63.85
76609;BME280;65928;53.936;27.540;2023-02-01T12:13:13;97251.97;;;4.52;64.79
76609;BME280;65928;53.936;27.540;2023-02-01T12:15:52;97299.81;;;4.85;65.53
76609;BME280;65928;53.936;27.540;2023-02-01T12:21:34;97364.53;;;5.13;65.20
76609;BME280;65928;53.936;27.540;2023-02-01T12:38:38;97361.66;;;5.02;66.84
76609;BME280;65928;53.936;27.540;2023-02-01T12:43:41;97419.22;;;4.86;66.33
76609;BME280;65928;53.936;27.540;2023-02-01T12:48:52;97406.44;;;5.13;66.46
76609;BME280;65928;53.936;27.540;2023-02-01T12:51:25;96970.66;;;2.64;67.13
76609;BME280;65928;53.936;27.540;2023-02-01T12:54:26;97354.56;;;5.04;66.72
76609;BME280;65928;53.936;27.540;2023-02-01T12:57:00;97270.09;;;4.71;66.51
76609;BME280;65928;53.936;27.540;2023-02-01T12:59:54;97349.66;;;4.82;67.28
76609;BME280;65928;53.936;27.540;2023-02-01T13:02:30;97407.84;;;4.87;67.18
76609;BME280;65928;53.936;27.540;2023-02-01T13:05:19;97352.03;;;4.87;66.69
76609;BME280;65928;53.936;27.540;2023-02-01T13:10:22;96901.03;;;2.33;66.39
76609;BME280;65928;53.936;27.540;2023-02-01T13:12:54;97277.88;;;4.57;66.41
76609;BME280;65928;53.936;27.540;2023-02-01T13:15:28;96963.69;;;2.80;65.67
76609;BME280;65928;53.936;27.540;2023-02-01T13:17:55;97348.75;;;4.99;66.54
76609;BME280;65928;53.936;27.540;2023-02-01T13:20:31;97416.50;;;4.39;68.29
76609;BME280;65928;53.936;27.540;2023-02-01T13:23:26;97358.69;;;4.61;67.76
76609;BME280;65928;53.936;27.540;2023-02-01T13:25:53;97354.91;;;4.82;67.14
76609;BME280;65928;53.936;27.540;2023-02-01T13:28:31;97232.59;;;3.59;68.63
76609;BME280;65928;53.936;27.540;2023-02-01T13:33:52;96895.84;;;1.49;68.85
76609;BME280;65928;53.936;27.540;2023-02-01T13:39:24;97384.94;;;4.27;69.09
76609;BME280;65928;53.936;27.540;2023-02-01T13:44:44;97346.59;;;4.27;68.93
76609;BME280;65928;53.936;27.540;2023-02-01T13:47:43;96888.63;;;1.37;69.22
76609;BME280;65928;53.936;27.540;2023-02-01T13:50:19;97361.50;;;4.08;68.91
76609;BME280;65928;53.936;27.540;2023-02-01T13:52:53;97380.13;;;4.02;69.24
76609;BME280;65928;53.936;27.540;2023-02-01T13:57:45;96972.94;;;2.20;67.93
76609;BME280;65928;53.936;27.540;2023-02-01T14:00:34;97362.44;;;4.07;69.28
76609;BME280;65928;53.936;27.540;2023-02-01T14:10:57;97340.34;;;3.80;70.15
76609;BME280;65928;53.936;27.540;2023-02-01T14:13:42;97334.50;;;3.92;69.24
76609;BME280;65928;53.936;27.540;2023-02-01T14:16:13;96958.81;;;1.73;69.56
76609;BME280;65928;53.936;27.540;2023-02-01T14:28:58;96950.09;;;1.40;70.31
76609;BME280;65928;53.936;27.540;2023-02-01T14:31:41;97387.28;;;3.99;70.49
76609;BME280;65928;53.936;27.540;2023-02-01T14:35:19;97287.06;;;3.16;70.93
76609;BME280;65928;53.936;27.540;2023-02-01T14:44:48;97347.75;;;3.19;71.32
76609;BME280;65928;53.936;27.540;2023-02-01T14:52:23;96968.38;;;1.20;72.33
76609;BME280;65928;53.936;27.540;2023-02-01T14:54:55;96881.34;;;0.91;71.19
76609;BME280;65928;53.936;27.540;2023-02-01T14:57:25;97348.41;;;3.24;72.84
76609;BME280;65928;53.936;27.540;2023-02-01T15:00:07;96890.06;;;0.71;72.79
76609;BME280;65928;53.936;27.540;2023-02-01T15:02:35;97351.28;;;3.71;71.49
76609;BME280;65928;53.936;27.540;2023-02-01T15:05:02;97334.91;;;3.50;71.95
76609;BME280;65928;53.936;27.540;2023-02-01T15:07:28;97303.19;;;3.07;72.72
76609;BME280;65928;53.936;27.540;2023-02-01T15:09:56;97407.72;;;3.56;72.78
76609;BME280;65928;53.936;27.540;2023-02-01T15:12:27;96832.41;;;0.45;72.15
76609;BME280;65928;53.936;27.540;2023-02-01T15:15:13;97360.63;;;3.41;72.67
76609;BME280;65928;53.936;27.540;2023-02-01T15:17:40;96884.56;;;0.59;72.46
76609;BME280;65928;53.936;27.540;2023-02-01T15:20:18;97459.44;;;3.48;72.28
76609;BME280;65928;53.936;27.540;2023-02-01T15:23:16;97367.16;;;3.49;72.45
76609;BME280;65928;53.936;27.540;2023-02-01T15:25:45;96981.16;;;1.06;72.91